Terminal Aerodrome Forecast
Issued by NWS Knoxville/Tri Cities, TN

Home | Current Version | Previous Version | Text Only | Print | Product List | Glossary On
Versions: 1 2 3 4 5 6 7 8 9 10 11 12 13 14 15 16 17 18 19 20 21 22 23 24 25 26 27 28 29 30 31 32 33 34 35 36
000
FTUS44 KMRX 231120
TAFTYS
TAF
KTYS 231120Z 2312/2412 VRB05KT P6SM -RA BKN060
      TEMPO 2313/2316 4SM -SHRA BR BKN025
     FM231800 36005KT P6SM VCTS BKN040CB
     FM240000 VRB03KT P6SM BKN050
     FM240800 VRB02KT 4SM BR OVC015=

USA.gov is the U.S. government's official web portal to all federal, state and local government web resources and services.